sensor_id;sensor_type;location;lat;lon;timestamp;pressure;altitude;pressure_sealevel;temperature;humidity
59951;BME280;45812;53.540;9.774;2022-12-16T00:01:49;101086.88;;;-0.57;98.65
59951;BME280;45812;53.540;9.774;2022-12-16T00:04:14;101087.59;;;-0.54;98.93
59951;BME280;45812;53.540;9.774;2022-12-16T00:06:41;101092.56;;;-0.49;98.72
59951;BME280;45812;53.540;9.774;2022-12-16T00:09:07;101085.47;;;-0.47;98.57
59951;BME280;45812;53.540;9.774;2022-12-16T00:11:32;101082.84;;;-0.47;98.87
59951;BME280;45812;53.540;9.774;2022-12-16T00:13:57;101092.38;;;-0.46;99.64
59951;BME280;45812;53.540;9.774;2022-12-16T00:16:22;101100.13;;;-0.45;99.75
59951;BME280;45812;53.540;9.774;2022-12-16T00:18:48;101093.88;;;-0.42;100.00
59951;BME280;45812;53.540;9.774;2022-12-16T00:21:14;101096.31;;;-0.39;100.00
59951;BME280;45812;53.540;9.774;2022-12-16T00:23:42;101094.41;;;-0.36;99.87
59951;BME280;45812;53.540;9.774;2022-12-16T00:26:09;101094.41;;;-0.36;100.00
59951;BME280;45812;53.540;9.774;2022-12-16T00:28:34;101094.50;;;-0.37;100.00
59951;BME280;45812;53.540;9.774;2022-12-16T00:30:59;101090.94;;;-0.36;100.00
59951;BME280;45812;53.540;9.774;2022-12-16T00:33:26;101083.94;;;-0.36;100.00
59951;BME280;45812;53.540;9.774;2022-12-16T00:35:52;101090.03;;;-0.35;100.00
59951;BME280;45812;53.540;9.774;2022-12-16T00:38:18;101089.19;;;-0.36;100.00
59951;BME280;45812;53.540;9.774;2022-12-16T00:40:43;101089.09;;;-0.34;100.00
59951;BME280;45812;53.540;9.774;2022-12-16T00:43:09;101093.38;;;-0.33;100.00
59951;BME280;45812;53.540;9.774;2022-12-16T00:45:34;101102.00;;;-0.31;100.00
59951;BME280;45812;53.540;9.774;2022-12-16T00:48:00;101100.31;;;-0.32;100.00
59951;BME280;45812;53.540;9.774;2022-12-16T00:50:25;101107.22;;;-0.31;100.00
59951;BME280;45812;53.540;9.774;2022-12-16T00:52:51;101104.59;;;-0.31;100.00
59951;BME280;45812;53.540;9.774;2022-12-16T00:55:17;101104.59;;;-0.31;100.00
59951;BME280;45812;53.540;9.774;2022-12-16T00:57:43;101104.69;;;-0.33;100.00
59951;BME280;45812;53.540;9.774;2022-12-16T01:00:10;101110.00;;;-0.34;100.00
59951;BME280;45812;53.540;9.774;2022-12-16T01:02:41;101111.53;;;-0.30;100.00
59951;BME280;45812;53.540;9.774;2022-12-16T01:05:07;101111.53;;;-0.30;99.99
59951;BME280;45812;53.540;9.774;2022-12-16T01:07:33;101107.88;;;-0.27;100.00
59951;BME280;45812;53.540;9.774;2022-12-16T01:09:59;101115.81;;;-0.29;100.00
59951;BME280;45812;53.540;9.774;2022-12-16T01:12:24;101113.97;;;-0.27;100.00
59951;BME280;45812;53.540;9.774;2022-12-16T01:14:49;101113.88;;;-0.25;100.00
59951;BME280;45812;53.540;9.774;2022-12-16T01:17:14;101121.63;;;-0.24;100.00
59951;BME280;45812;53.540;9.774;2022-12-16T01:19:40;101128.72;;;-0.26;100.00
59951;BME280;45812;53.540;9.774;2022-12-16T01:22:05;101130.50;;;-0.26;100.00
59951;BME280;45812;53.540;9.774;2022-12-16T01:24:30;101136.56;;;-0.26;100.00
59951;BME280;45812;53.540;9.774;2022-12-16T01:26:56;101135.63;;;-0.25;99.79
59951;BME280;45812;53.540;9.774;2022-12-16T01:29:21;101132.09;;;-0.24;100.00
59951;BME280;45812;53.540;9.774;2022-12-16T01:31:46;101138.25;;;-0.25;100.00
59951;BME280;45812;53.540;9.774;2022-12-16T01:34:11;101153.28;;;-0.28;100.00
59951;BME280;45812;53.540;9.774;2022-12-16T01:36:36;101153.44;;;-0.32;100.00
59951;BME280;45812;53.540;9.774;2022-12-16T01:39:02;101156.25;;;-0.35;100.00
59951;BME280;45812;53.540;9.774;2022-12-16T01:41:27;101156.56;;;-0.41;100.00
59951;BME280;45812;53.540;9.774;2022-12-16T01:44:11;101160.19;;;-0.43;100.00
59951;BME280;45812;53.540;9.774;2022-12-16T01:46:38;101159.44;;;-0.45;99.52
59951;BME280;45812;53.540;9.774;2022-12-16T01:49:10;101160.44;;;-0.48;99.77
59951;BME280;45812;53.540;9.774;2022-12-16T01:51:42;101154.53;;;-0.51;99.97
59951;BME280;45812;53.540;9.774;2022-12-16T01:54:12;101158.00;;;-0.51;100.00
59951;BME280;45812;53.540;9.774;2022-12-16T01:56:41;101170.41;;;-0.54;99.49
59951;BME280;45812;53.540;9.774;2022-12-16T01:59:10;101166.25;;;-0.58;100.00
59951;BME280;45812;53.540;9.774;2022-12-16T02:01:37;101156.03;;;-0.63;100.00
59951;BME280;45812;53.540;9.774;2022-12-16T02:04:03;101159.75;;;-0.67;100.00
59951;BME280;45812;53.540;9.774;2022-12-16T02:06:31;101157.31;;;-0.70;99.92
59951;BME280;45812;53.540;9.774;2022-12-16T02:08:57;101151.47;;;-0.75;100.00
59951;BME280;45812;53.540;9.774;2022-12-16T02:17:27;101154.88;;;-1.06;100.00
59951;BME280;45812;53.540;9.774;2022-12-16T02:25:57;101169.63;;;-1.57;100.00
59951;BME280;45812;53.540;9.774;2022-12-16T02:28:56;101172.06;;;-1.71;100.00
59951;BME280;45812;53.540;9.774;2022-12-16T02:31:40;101166.72;;;-1.86;100.00
59951;BME280;45812;53.540;9.774;2022-12-16T02:36:55;101175.44;;;-2.04;100.00
59951;BME280;45812;53.540;9.774;2022-12-16T02:39:37;101161.19;;;-1.62;100.00
59951;BME280;45812;53.540;9.774;2022-12-16T02:42:15;101163.41;;;-1.72;100.00
59951;BME280;45812;53.540;9.774;2022-12-16T02:47:17;101166.94;;;-2.09;100.00
59951;BME280;45812;53.540;9.774;2022-12-16T02:49:48;101160.78;;;-1.72;100.00
59951;BME280;45812;53.540;9.774;2022-12-16T02:52:15;101160.56;;;-1.50;100.00
59951;BME280;45812;53.540;9.774;2022-12-16T02:54:42;101160.44;;;-1.47;100.00
59951;BME280;45812;53.540;9.774;2022-12-16T03:00:00;101159.03;;;-1.54;99.68
59951;BME280;45812;53.540;9.774;2022-12-16T03:02:52;101156.75;;;-1.60;99.76
59951;BME280;45812;53.540;9.774;2022-12-16T03:05:43;101162.28;;;-1.66;99.93
59951;BME280;45812;53.540;9.774;2022-12-16T03:08:14;101166.84;;;-1.71;99.53
59951;BME280;45812;53.540;9.774;2022-12-16T03:10:45;101160.94;;;-1.75;100.00
59951;BME280;45812;53.540;9.774;2022-12-16T03:13:12;101157.66;;;-1.78;100.00
59951;BME280;45812;53.540;9.774;2022-12-16T03:15:40;101162.09;;;-1.80;99.90
59951;BME280;45812;53.540;9.774;2022-12-16T03:18:08;101164.94;;;-1.85;100.00
59951;BME280;45812;53.540;9.774;2022-12-16T03:20:56;101166.75;;;-1.87;100.00
59951;BME280;45812;53.540;9.774;2022-12-16T03:23:30;101181.03;;;-1.94;100.00
59951;BME280;45812;53.540;9.774;2022-12-16T03:26:02;101178.66;;;-1.99;100.00
59951;BME280;45812;53.540;9.774;2022-12-16T03:28:47;101185.91;;;-2.05;100.00
59951;BME280;45812;53.540;9.774;2022-12-16T03:31:53;101182.44;;;-2.06;100.00
59951;BME280;45812;53.540;9.774;2022-12-16T03:34:26;101184.38;;;-2.09;100.00
59951;BME280;45812;53.540;9.774;2022-12-16T03:36:59;101185.50;;;-2.15;100.00
59951;BME280;45812;53.540;9.774;2022-12-16T03:39:26;101181.44;;;-2.21;100.00
59951;BME280;45812;53.540;9.774;2022-12-16T03:41:52;101182.53;;;-2.26;100.00
59951;BME280;45812;53.540;9.774;2022-12-16T03:44:20;101187.91;;;-2.29;100.00
59951;BME280;45812;53.540;9.774;2022-12-16T03:46:46;101188.97;;;-2.33;100.00
59951;BME280;45812;53.540;9.774;2022-12-16T03:49:11;101193.56;;;-2.38;100.00
59951;BME280;45812;53.540;9.774;2022-12-16T03:51:37;101189.38;;;-2.42;100.00
59951;BME280;45812;53.540;9.774;2022-12-16T03:54:02;101193.97;;;-2.48;100.00
59951;BME280;45812;53.540;9.774;2022-12-16T03:56:27;101192.50;;;-2.53;100.00
59951;BME280;45812;53.540;9.774;2022-12-16T03:58:52;101196.16;;;-2.57;100.00
59951;BME280;45812;53.540;9.774;2022-12-16T04:01:18;101205.75;;;-2.58;100.00
59951;BME280;45812;53.540;9.774;2022-12-16T04:03:43;101201.44;;;-2.59;100.00
59951;BME280;45812;53.540;9.774;2022-12-16T04:06:08;101208.34;;;-2.58;100.00
59951;BME280;45812;53.540;9.774;2022-12-16T04:08:33;101204.06;;;-2.59;100.00
59951;BME280;45812;53.540;9.774;2022-12-16T04:10:59;101206.66;;;-2.59;100.00
59951;BME280;45812;53.540;9.774;2022-12-16T04:13:43;101209.38;;;-2.62;100.00
59951;BME280;45812;53.540;9.774;2022-12-16T04:16:28;101209.50;;;-2.65;100.00
59951;BME280;45812;53.540;9.774;2022-12-16T04:19:18;101212.13;;;-2.65;100.00
59951;BME280;45812;53.540;9.774;2022-12-16T04:22:04;101214.66;;;-2.63;100.00
59951;BME280;45812;53.540;9.774;2022-12-16T04:24:48;101215.66;;;-2.66;100.00
59951;BME280;45812;53.540;9.774;2022-12-16T04:27:13;101225.94;;;-2.63;100.00
59951;BME280;45812;53.540;9.774;2022-12-16T04:29:52;101232.06;;;-2.64;100.00
59951;BME280;45812;53.540;9.774;2022-12-16T04:32:36;101235.56;;;-2.65;100.00
59951;BME280;45812;53.540;9.774;2022-12-16T04:35:20;101241.56;;;-2.63;100.00
59951;BME280;45812;53.540;9.774;2022-12-16T04:38:04;101242.41;;;-2.62;100.00
59951;BME280;45812;53.540;9.774;2022-12-16T04:40:48;101241.69;;;-2.66;100.00
59951;BME280;45812;53.540;9.774;2022-12-16T04:43:32;101248.81;;;-2.69;100.00
59951;BME280;45812;53.540;9.774;2022-12-16T04:46:16;101255.78;;;-2.70;100.00
59951;BME280;45812;53.540;9.774;2022-12-16T04:49:00;101248.88;;;-2.71;100.00
59951;BME280;45812;53.540;9.774;2022-12-16T04:51:44;101242.13;;;-2.75;100.00
59951;BME280;45812;53.540;9.774;2022-12-16T04:54:28;101246.56;;;-2.77;100.00
59951;BME280;45812;53.540;9.774;2022-12-16T04:57:12;101249.22;;;-2.79;100.00
59951;BME280;45812;53.540;9.774;2022-12-16T04:59:56;101253.69;;;-2.82;100.00
59951;BME280;45812;53.540;9.774;2022-12-16T05:02:40;101252.22;;;-2.88;100.00
59951;BME280;45812;53.540;9.774;2022-12-16T05:05:23;101259.38;;;-2.93;100.00
59951;BME280;45812;53.540;9.774;2022-12-16T05:08:07;101256.06;;;-2.96;100.00
59951;BME280;45812;53.540;9.774;2022-12-16T05:10:51;101273.56;;;-3.00;100.00
59951;BME280;45812;53.540;9.774;2022-12-16T05:13:35;101267.66;;;-3.03;100.00
59951;BME280;45812;53.540;9.774;2022-12-16T05:16:19;101272.91;;;-3.05;100.00
59951;BME280;45812;53.540;9.774;2022-12-16T05:19:03;101270.44;;;-3.08;100.00
59951;BME280;45812;53.540;9.774;2022-12-16T05:21:47;101274.03;;;-3.11;100.00
59951;BME280;45812;53.540;9.774;2022-12-16T05:24:31;101275.84;;;-3.13;100.00
59951;BME280;45812;53.540;9.774;2022-12-16T05:27:15;101269.97;;;-3.18;100.00
59951;BME280;45812;53.540;9.774;2022-12-16T05:29:58;101273.63;;;-3.22;100.00
59951;BME280;45812;53.540;9.774;2022-12-16T05:32:42;101278.88;;;-3.23;100.00
59951;BME280;45812;53.540;9.774;2022-12-16T05:35:37;101284.94;;;-3.23;100.00
59951;BME280;45812;53.540;9.774;2022-12-16T05:38:21;101286.84;;;-3.26;100.00
59951;BME280;45812;53.540;9.774;2022-12-16T05:41:04;101295.63;;;-3.29;100.00
59951;BME280;45812;53.540;9.774;2022-12-16T05:43:48;101297.44;;;-3.31;100.00
59951;BME280;45812;53.540;9.774;2022-12-16T05:46:32;101302.66;;;-3.31;100.00
59951;BME280;45812;53.540;9.774;2022-12-16T05:49:16;101305.97;;;-3.27;100.00
59951;BME280;45812;53.540;9.774;2022-12-16T05:52:00;101312.66;;;-3.22;100.00
59951;BME280;45812;53.540;9.774;2022-12-16T05:54:44;101310.84;;;-3.20;100.00
59951;BME280;45812;53.540;9.774;2022-12-16T05:57:28;101316.13;;;-3.21;100.00
59951;BME280;45812;53.540;9.774;2022-12-16T06:00:12;101313.50;;;-3.21;100.00
59951;BME280;45812;53.540;9.774;2022-12-16T06:02:56;101313.66;;;-3.24;100.00
59951;BME280;45812;53.540;9.774;2022-12-16T06:05:40;101317.28;;;-3.28;100.00
59951;BME280;45812;53.540;9.774;2022-12-16T06:08:24;101327.75;;;-3.30;100.00
59951;BME280;45812;53.540;9.774;2022-12-16T06:11:08;101326.00;;;-3.29;100.00
59951;BME280;45812;53.540;9.774;2022-12-16T06:13:52;101325.94;;;-3.28;100.00
59951;BME280;45812;53.540;9.774;2022-12-16T06:16:36;101329.47;;;-3.29;100.00
59951;BME280;45812;53.540;9.774;2022-12-16T06:19:20;101335.56;;;-3.30;100.00
59951;BME280;45812;53.540;9.774;2022-12-16T06:22:04;101331.34;;;-3.32;100.00
59951;BME280;45812;53.540;9.774;2022-12-16T06:24:48;101335.56;;;-3.30;100.00
59951;BME280;45812;53.540;9.774;2022-12-16T06:27:32;101337.00;;;-3.23;100.00
59951;BME280;45812;53.540;9.774;2022-12-16T06:30:16;101341.09;;;-3.16;100.00
59951;BME280;45812;53.540;9.774;2022-12-16T06:33:00;101349.59;;;-3.12;100.00
59951;BME280;45812;53.540;9.774;2022-12-16T06:35:44;101347.53;;;-3.04;100.00
59951;BME280;45812;53.540;9.774;2022-12-16T06:38:28;101350.56;;;-2.93;100.00
59951;BME280;45812;53.540;9.774;2022-12-16T06:41:11;101356.34;;;-2.86;100.00
59951;BME280;45812;53.540;9.774;2022-12-16T06:43:55;101362.13;;;-2.80;100.00
59951;BME280;45812;53.540;9.774;2022-12-16T06:46:39;101364.16;;;-2.66;100.00
59951;BME280;45812;53.540;9.774;2022-12-16T06:49:23;101374.22;;;-2.57;100.00
59951;BME280;45812;53.540;9.774;2022-12-16T06:52:07;101359.03;;;-2.47;100.00
59951;BME280;45812;53.540;9.774;2022-12-16T06:54:51;101363.84;;;-2.38;100.00
59951;BME280;45812;53.540;9.774;2022-12-16T06:57:35;101369.50;;;-2.28;100.00
59951;BME280;45812;53.540;9.774;2022-12-16T07:00:19;101382.94;;;-2.17;100.00
59951;BME280;45812;53.540;9.774;2022-12-16T07:03:03;101386.03;;;-2.09;100.00
59951;BME280;45812;53.540;9.774;2022-12-16T07:05:51;101389.38;;;-2.66;100.00
59951;BME280;45812;53.540;9.774;2022-12-16T07:08:35;101392.19;;;-2.71;100.00
59951;BME280;45812;53.540;9.774;2022-12-16T07:11:19;101385.09;;;-2.67;100.00
59951;BME280;45812;53.540;9.774;2022-12-16T07:14:03;101386.56;;;-2.62;100.00
59951;BME280;45812;53.540;9.774;2022-12-16T07:16:47;101391.69;;;-2.59;100.00
59951;BME280;45812;53.540;9.774;2022-12-16T07:19:31;101396.06;;;-2.59;100.00
59951;BME280;45812;53.540;9.774;2022-12-16T07:22:15;101407.63;;;-2.66;100.00
59951;BME280;45812;53.540;9.774;2022-12-16T07:24:59;101419.81;;;-2.67;100.00
59951;BME280;45812;53.540;9.774;2022-12-16T07:27:46;101420.78;;;-2.69;100.00
59951;BME280;45812;53.540;9.774;2022-12-16T07:30:30;101422.97;;;-2.81;100.00
59951;BME280;45812;53.540;9.774;2022-12-16T07:33:14;101426.28;;;-2.97;100.00
59951;BME280;45812;53.540;9.774;2022-12-16T07:35:58;101439.91;;;-3.13;100.00
59951;BME280;45812;53.540;9.774;2022-12-16T07:38:42;101438.59;;;-3.24;100.00
59951;BME280;45812;53.540;9.774;2022-12-16T07:41:26;101450.22;;;-3.33;100.00
59951;BME280;45812;53.540;9.774;2022-12-16T07:44:10;101449.72;;;-3.43;100.00
59951;BME280;45812;53.540;9.774;2022-12-16T07:46:53;101453.63;;;-3.54;100.00
59951;BME280;45812;53.540;9.774;2022-12-16T07:49:37;101453.06;;;-3.62;100.00
59951;BME280;45812;53.540;9.774;2022-12-16T07:52:22;101468.28;;;-3.52;100.00
59951;BME280;45812;53.540;9.774;2022-12-16T07:55:06;101464.78;;;-3.51;100.00
59951;BME280;45812;53.540;9.774;2022-12-16T07:57:50;101464.38;;;-3.40;100.00
59951;BME280;45812;53.540;9.774;2022-12-16T08:00:34;101469.50;;;-3.15;100.00
59951;BME280;45812;53.540;9.774;2022-12-16T08:03:18;101472.84;;;-2.90;100.00
59951;BME280;45812;53.540;9.774;2022-12-16T08:06:02;101484.94;;;-2.67;100.00
59951;BME280;45812;53.540;9.774;2022-12-16T08:08:46;101482.44;;;-2.48;100.00
59951;BME280;45812;53.540;9.774;2022-12-16T08:11:30;101491.13;;;-2.27;100.00
59951;BME280;45812;53.540;9.774;2022-12-16T08:14:14;101489.44;;;-2.08;100.00
59951;BME280;45812;53.540;9.774;2022-12-16T08:16:57;101497.41;;;-1.91;100.00
59951;BME280;45812;53.540;9.774;2022-12-16T08:19:41;101495.75;;;-1.73;100.00
59951;BME280;45812;53.540;9.774;2022-12-16T08:22:25;101499.38;;;-1.57;100.00
59951;BME280;45812;53.540;9.774;2022-12-16T08:25:09;101506.91;;;-1.30;100.00
59951;BME280;45812;53.540;9.774;2022-12-16T08:27:54;101516.06;;;-0.84;100.00
59951;BME280;45812;53.540;9.774;2022-12-16T08:30:39;101520.34;;;-0.28;100.00
59951;BME280;45812;53.540;9.774;2022-12-16T08:33:23;101528.81;;;0.12;98.16
59951;BME280;45812;53.540;9.774;2022-12-16T08:36:07;101525.81;;;0.19;97.50
59951;BME280;45812;53.540;9.774;2022-12-16T08:38:50;101529.13;;;0.23;96.64
59951;BME280;45812;53.540;9.774;2022-12-16T08:41:34;101536.34;;;0.18;95.36
59951;BME280;45812;53.540;9.774;2022-12-16T08:44:18;101545.28;;;0.14;95.09
59951;BME280;45812;53.540;9.774;2022-12-16T08:47:02;101540.38;;;0.08;94.98
59951;BME280;45812;53.540;9.774;2022-12-16T08:49:47;101552.94;;;0.01;95.39
59951;BME280;45812;53.540;9.774;2022-12-16T08:52:31;101546.91;;;-0.01;95.29
59951;BME280;45812;53.540;9.774;2022-12-16T08:55:15;101552.22;;;-0.03;95.21
59951;BME280;45812;53.540;9.774;2022-12-16T08:57:59;101551.34;;;-0.03;95.29
59951;BME280;45812;53.540;9.774;2022-12-16T09:00:43;101546.03;;;-0.02;95.35
59951;BME280;45812;53.540;9.774;2022-12-16T09:03:27;101553.63;;;0.05;94.57
59951;BME280;45812;53.540;9.774;2022-12-16T09:06:11;101553.13;;;0.14;93.61
59951;BME280;45812;53.540;9.774;2022-12-16T09:08:54;101565.28;;;0.15;94.28
59951;BME280;45812;53.540;9.774;2022-12-16T09:11:38;101560.63;;;0.21;94.14
59951;BME280;45812;53.540;9.774;2022-12-16T09:14:22;101563.31;;;0.20;93.56
59951;BME280;45812;53.540;9.774;2022-12-16T09:17:06;101562.59;;;0.16;93.28
59951;BME280;45812;53.540;9.774;2022-12-16T09:19:50;101573.16;;;0.15;93.43
59951;BME280;45812;53.540;9.774;2022-12-16T09:22:34;101572.47;;;0.11;93.68
59951;BME280;45812;53.540;9.774;2022-12-16T09:25:18;101586.25;;;0.15;94.17
59951;BME280;45812;53.540;9.774;2022-12-16T09:28:02;101586.25;;;0.15;93.79
59951;BME280;45812;53.540;9.774;2022-12-16T09:30:46;101588.84;;;0.15;93.57
59951;BME280;45812;53.540;9.774;2022-12-16T09:33:30;101594.16;;;0.13;94.11
59951;BME280;45812;53.540;9.774;2022-12-16T09:36:15;101601.03;;;0.16;93.26
59951;BME280;45812;53.540;9.774;2022-12-16T09:38:59;101610.44;;;0.20;93.74
59951;BME280;45812;53.540;9.774;2022-12-16T09:41:44;101609.19;;;0.27;93.38
59951;BME280;45812;53.540;9.774;2022-12-16T09:48:00;101617.28;;;0.40;92.66
59951;BME280;45812;53.540;9.774;2022-12-16T09:50:48;101616.28;;;0.42;92.55
59951;BME280;45812;53.540;9.774;2022-12-16T09:53:35;101622.22;;;0.46;92.99
59951;BME280;45812;53.540;9.774;2022-12-16T09:56:26;101614.78;;;0.54;93.16
59951;BME280;45812;53.540;9.774;2022-12-16T09:59:13;101611.81;;;0.62;92.96
59951;BME280;45812;53.540;9.774;2022-12-16T10:01:58;101607.50;;;0.60;93.14
59951;BME280;45812;53.540;9.774;2022-12-16T10:04:50;101616.63;;;0.69;92.32
59951;BME280;45812;53.540;9.774;2022-12-16T10:07:37;101612.91;;;0.73;92.59
59951;BME280;45812;53.540;9.774;2022-12-16T10:10:34;101613.75;;;0.74;92.62
59951;BME280;45812;53.540;9.774;2022-12-16T10:13:39;101622.34;;;0.77;91.95
59951;BME280;45812;53.540;9.774;2022-12-16T10:16:45;101629.56;;;0.72;92.43
59951;BME280;45812;53.540;9.774;2022-12-16T10:22:47;101626.44;;;0.66;92.56
59951;BME280;45812;53.540;9.774;2022-12-16T10:25:40;101632.75;;;0.79;92.09
59951;BME280;45812;53.540;9.774;2022-12-16T10:31:19;101628.09;;;0.84;92.25
59951;BME280;45812;53.540;9.774;2022-12-16T10:34:10;101627.84;;;0.88;91.06
59951;BME280;45812;53.540;9.774;2022-12-16T10:36:55;101632.50;;;0.83;90.80
59951;BME280;45812;53.540;9.774;2022-12-16T10:39:42;101632.31;;;0.86;91.52
59951;BME280;45812;53.540;9.774;2022-12-16T10:42:30;101647.22;;;0.86;90.69
59951;BME280;45812;53.540;9.774;2022-12-16T10:46:03;101647.38;;;0.83;91.02
59951;BME280;45812;53.540;9.774;2022-12-16T10:48:28;101641.97;;;0.86;91.76
59951;BME280;45812;53.540;9.774;2022-12-16T10:51:15;101644.75;;;0.83;91.62
59951;BME280;45812;53.540;9.774;2022-12-16T10:54:13;101635.88;;;0.85;91.34
59951;BME280;45812;53.540;9.774;2022-12-16T10:57:27;101632.16;;;0.89;90.70
59951;BME280;45812;53.540;9.774;2022-12-16T11:00:20;101637.19;;;0.94;90.74
59951;BME280;45812;53.540;9.774;2022-12-16T11:03:25;101636.25;;;0.95;90.38
59951;BME280;45812;53.540;9.774;2022-12-16T11:06:13;101633.63;;;0.95;89.81
59951;BME280;45812;53.540;9.774;2022-12-16T11:09:19;101631.03;;;0.95;89.39
59951;BME280;45812;53.540;9.774;2022-12-16T11:12:23;101633.63;;;0.95;89.39
59951;BME280;45812;53.540;9.774;2022-12-16T11:18:10;101629.19;;;0.80;88.95
59951;BME280;45812;53.540;9.774;2022-12-16T11:21:11;101629.19;;;0.80;88.89
59951;BME280;45812;53.540;9.774;2022-12-16T11:27:01;101637.97;;;0.79;89.26
59951;BME280;45812;53.540;9.774;2022-12-16T11:32:39;101634.59;;;0.77;89.39
59951;BME280;45812;53.540;9.774;2022-12-16T11:35:27;101633.50;;;0.81;88.79
59951;BME280;45812;53.540;9.774;2022-12-16T11:38:20;101646.78;;;0.78;89.30
59951;BME280;45812;53.540;9.774;2022-12-16T11:41:06;101658.25;;;0.75;88.83
59951;BME280;45812;53.540;9.774;2022-12-16T11:43:52;101653.78;;;0.77;89.85
59951;BME280;45812;53.540;9.774;2022-12-16T11:46:37;101651.69;;;0.84;89.17
59951;BME280;45812;53.540;9.774;2022-12-16T11:49:29;101650.59;;;0.88;89.35
59951;BME280;45812;53.540;9.774;2022-12-16T11:52:16;101654.81;;;0.90;88.94
59951;BME280;45812;53.540;9.774;2022-12-16T11:58:36;101653.50;;;0.99;89.91
59951;BME280;45812;53.540;9.774;2022-12-16T12:01:31;101664.69;;;1.03;89.23
59951;BME280;45812;53.540;9.774;2022-12-16T12:04:15;101657.06;;;0.98;87.93
59951;BME280;45812;53.540;9.774;2022-12-16T12:07:12;101658.94;;;0.96;88.90
59951;BME280;45812;53.540;9.774;2022-12-16T12:10:27;101664.16;;;0.96;88.43
59951;BME280;45812;53.540;9.774;2022-12-16T12:13:25;101673.72;;;0.97;88.07
59951;BME280;45812;53.540;9.774;2022-12-16T12:22:43;101674.31;;;1.02;88.40
59951;BME280;45812;53.540;9.774;2022-12-16T12:28:57;101682.69;;;0.93;87.88
59951;BME280;45812;53.540;9.774;2022-12-16T12:32:03;101683.06;;;0.85;88.36
59951;BME280;45812;53.540;9.774;2022-12-16T12:35:19;101690.91;;;0.85;88.33
59951;BME280;45812;53.540;9.774;2022-12-16T12:38:12;101692.63;;;0.86;88.43
59951;BME280;45812;53.540;9.774;2022-12-16T12:41:23;101693.38;;;0.88;89.69
59951;BME280;45812;53.540;9.774;2022-12-16T12:44:22;101692.06;;;0.97;89.61
59951;BME280;45812;53.540;9.774;2022-12-16T12:47:12;101690.06;;;1.02;88.60
59951;BME280;45812;53.540;9.774;2022-12-16T12:50:12;101693.28;;;1.07;88.64
59951;BME280;45812;53.540;9.774;2022-12-16T12:56:16;101689.09;;;1.20;88.11
59951;BME280;45812;53.540;9.774;2022-12-16T12:59:05;101692.00;;;1.32;87.36
59951;BME280;45812;53.540;9.774;2022-12-16T13:01:55;101689.38;;;1.32;87.61
59951;BME280;45812;53.540;9.774;2022-12-16T13:04:40;101685.69;;;1.51;88.02
59951;BME280;45812;53.540;9.774;2022-12-16T13:07:25;101694.44;;;1.68;86.61
59951;BME280;45812;53.540;9.774;2022-12-16T13:15:59;101700.84;;;2.09;85.55
59951;BME280;45812;53.540;9.774;2022-12-16T13:18:43;101692.34;;;2.20;84.75
59951;BME280;45812;53.540;9.774;2022-12-16T13:24:41;101699.09;;;2.40;84.71
59951;BME280;45812;53.540;9.774;2022-12-16T13:27:27;101700.53;;;2.46;83.60
59951;BME280;45812;53.540;9.774;2022-12-16T13:32:59;101702.56;;;2.40;83.90
59951;BME280;45812;53.540;9.774;2022-12-16T13:35:56;101723.03;;;2.20;84.42
59951;BME280;45812;53.540;9.774;2022-12-16T13:38:48;101714.25;;;2.05;84.66
59951;BME280;45812;53.540;9.774;2022-12-16T13:50:41;101729.78;;;3.85;76.19
59951;BME280;45812;53.540;9.774;2022-12-16T13:53:29;101731.66;;;4.51;73.50
59951;BME280;45812;53.540;9.774;2022-12-16T13:56:17;101738.53;;;5.06;71.04
59951;BME280;45812;53.540;9.774;2022-12-16T13:59:05;101733.34;;;5.68;67.21
59951;BME280;45812;53.540;9.774;2022-12-16T14:01:53;101734.25;;;6.29;64.13
59951;BME280;45812;53.540;9.774;2022-12-16T14:04:52;101741.06;;;6.79;61.38
59951;BME280;45812;53.540;9.774;2022-12-16T14:07:38;101741.78;;;7.16;59.50
59951;BME280;45812;53.540;9.774;2022-12-16T14:10:31;101744.78;;;7.23;58.19
59951;BME280;45812;53.540;9.774;2022-12-16T14:13:24;101747.31;;;7.13;57.62
59951;BME280;45812;53.540;9.774;2022-12-16T14:16:31;101754.38;;;6.90;57.71
59951;BME280;45812;53.540;9.774;2022-12-16T14:23:11;101758.22;;;6.38;58.44
59951;BME280;45812;53.540;9.774;2022-12-16T14:26:02;101750.66;;;5.97;59.76
59951;BME280;45812;53.540;9.774;2022-12-16T14:28:46;101755.97;;;5.46;61.29
59951;BME280;45812;53.540;9.774;2022-12-16T14:31:37;101767.97;;;5.00;62.47
59951;BME280;45812;53.540;9.774;2022-12-16T14:34:30;101760.38;;;4.29;65.18
59951;BME280;45812;53.540;9.774;2022-12-16T14:37:35;101776.63;;;3.80;67.69
59951;BME280;45812;53.540;9.774;2022-12-16T14:40:37;101776.50;;;3.24;69.80
59951;BME280;45812;53.540;9.774;2022-12-16T14:43:23;101773.63;;;2.69;73.08
59951;BME280;45812;53.540;9.774;2022-12-16T14:49:29;101780.53;;;1.77;78.56
59951;BME280;45812;53.540;9.774;2022-12-16T14:52:19;101787.63;;;1.42;79.79
59951;BME280;45812;53.540;9.774;2022-12-16T14:55:09;101788.34;;;1.11;82.08
59951;BME280;45812;53.540;9.774;2022-12-16T14:58:08;101783.66;;;0.83;83.16
59951;BME280;45812;53.540;9.774;2022-12-16T15:00:53;101782.53;;;0.52;85.47
59951;BME280;45812;53.540;9.774;2022-12-16T15:03:43;101782.78;;;0.29;87.45
59951;BME280;45812;53.540;9.774;2022-12-16T15:06:37;101799.44;;;0.09;88.59
59951;BME280;45812;53.540;9.774;2022-12-16T15:09:28;101796.09;;;-0.13;89.17
59951;BME280;45812;53.540;9.774;2022-12-16T15:12:18;101811.78;;;-0.32;90.52
59951;BME280;45812;53.540;9.774;2022-12-16T15:15:04;101814.09;;;-0.45;91.87
59951;BME280;45812;53.540;9.774;2022-12-16T15:17:52;101815.59;;;-0.59;93.86
59951;BME280;45812;53.540;9.774;2022-12-16T15:20:47;101820.31;;;-0.68;94.87
59951;BME280;45812;53.540;9.774;2022-12-16T15:23:32;101828.53;;;-0.77;94.69
59951;BME280;45812;53.540;9.774;2022-12-16T15:26:22;101840.69;;;-0.76;95.84
59951;BME280;45812;53.540;9.774;2022-12-16T15:29:39;101840.31;;;-0.67;95.17